sensor_id;sensor_type;location;lat;lon;timestamp;P1;durP1;ratioP1;P2;durP2;ratioP2
21392;SDS011;10857;52.228;21.026;2024-02-14T00:01:06;19.23;;;9.10;;
21392;SDS011;10857;52.228;21.026;2024-02-14T00:03:36;17.37;;;8.23;;
21392;SDS011;10857;52.228;21.026;2024-02-14T00:06:05;17.57;;;8.27;;
21392;SDS011;10857;52.228;21.026;2024-02-14T00:08:32;19.83;;;8.77;;
21392;SDS011;10857;52.228;21.026;2024-02-14T00:11:00;18.07;;;8.70;;
21392;SDS011;10857;52.228;21.026;2024-02-14T00:13:27;18.10;;;8.80;;
21392;SDS011;10857;52.228;21.026;2024-02-14T00:15:54;20.70;;;8.90;;
21392;SDS011;10857;52.228;21.026;2024-02-14T00:18:23;20.10;;;9.50;;
21392;SDS011;10857;52.228;21.026;2024-02-14T00:20:50;19.73;;;8.53;;
21392;SDS011;10857;52.228;21.026;2024-02-14T00:23:17;16.10;;;8.27;;
21392;SDS011;10857;52.228;21.026;2024-02-14T00:25:45;15.40;;;8.57;;
21392;SDS011;10857;52.228;21.026;2024-02-14T00:28:12;16.40;;;8.40;;
21392;SDS011;10857;52.228;21.026;2024-02-14T00:30:39;20.27;;;8.90;;
21392;SDS011;10857;52.228;21.026;2024-02-14T00:33:06;19.73;;;8.50;;
21392;SDS011;10857;52.228;21.026;2024-02-14T00:35:33;17.93;;;8.30;;
21392;SDS011;10857;52.228;21.026;2024-02-14T00:38:01;19.07;;;8.80;;
21392;SDS011;10857;52.228;21.026;2024-02-14T00:40:28;17.70;;;7.70;;
21392;SDS011;10857;52.228;21.026;2024-02-14T00:42:55;17.30;;;8.10;;
21392;SDS011;10857;52.228;21.026;2024-02-14T00:45:22;18.57;;;7.80;;
21392;SDS011;10857;52.228;21.026;2024-02-14T00:47:49;17.93;;;8.10;;
21392;SDS011;10857;52.228;21.026;2024-02-14T00:50:16;17.10;;;8.50;;
21392;SDS011;10857;52.228;21.026;2024-02-14T00:52:43;17.63;;;7.70;;
21392;SDS011;10857;52.228;21.026;2024-02-14T00:55:10;16.60;;;7.70;;
21392;SDS011;10857;52.228;21.026;2024-02-14T00:57:38;16.73;;;7.33;;
21392;SDS011;10857;52.228;21.026;2024-02-14T01:00:05;20.23;;;8.03;;
21392;SDS011;10857;52.228;21.026;2024-02-14T01:02:33;15.27;;;7.53;;
21392;SDS011;10857;52.228;21.026;2024-02-14T01:05:00;15.27;;;6.83;;
21392;SDS011;10857;52.228;21.026;2024-02-14T01:07:28;17.90;;;7.20;;
21392;SDS011;10857;52.228;21.026;2024-02-14T01:09:55;17.70;;;8.50;;
21392;SDS011;10857;52.228;21.026;2024-02-14T01:17:26;16.80;;;8.40;;
21392;SDS011;10857;52.228;21.026;2024-02-14T01:19:53;17.00;;;8.70;;
21392;SDS011;10857;52.228;21.026;2024-02-14T01:22:20;15.03;;;8.80;;
21392;SDS011;10857;52.228;21.026;2024-02-14T01:24:48;16.67;;;8.63;;
21392;SDS011;10857;52.228;21.026;2024-02-14T01:27:15;19.80;;;9.03;;
21392;SDS011;10857;52.228;21.026;2024-02-14T01:29:43;17.97;;;8.63;;
21392;SDS011;10857;52.228;21.026;2024-02-14T01:32:10;18.97;;;8.93;;
21392;SDS011;10857;52.228;21.026;2024-02-14T01:34:37;17.73;;;9.07;;
21392;SDS011;10857;52.228;21.026;2024-02-14T01:37:04;18.93;;;9.10;;
21392;SDS011;10857;52.228;21.026;2024-02-14T01:39:32;18.77;;;9.17;;
21392;SDS011;10857;52.228;21.026;2024-02-14T01:41:59;19.90;;;9.63;;
21392;SDS011;10857;52.228;21.026;2024-02-14T01:44:26;21.70;;;9.40;;
21392;SDS011;10857;52.228;21.026;2024-02-14T01:46:53;22.70;;;9.60;;
21392;SDS011;10857;52.228;21.026;2024-02-14T01:49:20;19.33;;;9.33;;
21392;SDS011;10857;52.228;21.026;2024-02-14T01:51:48;18.60;;;8.93;;
21392;SDS011;10857;52.228;21.026;2024-02-14T01:54:15;19.23;;;9.70;;
21392;SDS011;10857;52.228;21.026;2024-02-14T01:56:44;21.53;;;10.17;;
21392;SDS011;10857;52.228;21.026;2024-02-14T01:59:12;21.60;;;9.80;;
21392;SDS011;10857;52.228;21.026;2024-02-14T02:01:42;21.37;;;10.23;;
21392;SDS011;10857;52.228;21.026;2024-02-14T02:04:09;22.70;;;10.83;;
21392;SDS011;10857;52.228;21.026;2024-02-14T02:06:37;22.50;;;11.03;;
21392;SDS011;10857;52.228;21.026;2024-02-14T02:09:07;24.90;;;11.93;;
21392;SDS011;10857;52.228;21.026;2024-02-14T02:11:48;23.73;;;11.70;;
21392;SDS011;10857;52.228;21.026;2024-02-14T02:14:16;22.70;;;11.77;;
21392;SDS011;10857;52.228;21.026;2024-02-14T02:16:43;22.03;;;11.57;;
21392;SDS011;10857;52.228;21.026;2024-02-14T02:19:11;22.37;;;11.30;;
21392;SDS011;10857;52.228;21.026;2024-02-14T02:21:38;23.43;;;11.27;;
21392;SDS011;10857;52.228;21.026;2024-02-14T02:24:05;25.50;;;10.87;;
21392;SDS011;10857;52.228;21.026;2024-02-14T02:26:33;21.90;;;11.50;;
21392;SDS011;10857;52.228;21.026;2024-02-14T02:29:00;23.83;;;10.97;;
21392;SDS011;10857;52.228;21.026;2024-02-14T02:31:27;24.60;;;12.00;;
21392;SDS011;10857;52.228;21.026;2024-02-14T02:33:54;23.60;;;11.30;;
21392;SDS011;10857;52.228;21.026;2024-02-14T02:36:22;22.17;;;11.53;;
21392;SDS011;10857;52.228;21.026;2024-02-14T02:38:50;24.57;;;11.57;;
21392;SDS011;10857;52.228;21.026;2024-02-14T02:41:18;21.27;;;11.13;;
21392;SDS011;10857;52.228;21.026;2024-02-14T02:43:45;21.40;;;11.27;;
21392;SDS011;10857;52.228;21.026;2024-02-14T02:46:12;22.80;;;11.40;;
21392;SDS011;10857;52.228;21.026;2024-02-14T02:48:39;23.27;;;11.60;;
21392;SDS011;10857;52.228;21.026;2024-02-14T02:51:06;22.57;;;11.60;;
21392;SDS011;10857;52.228;21.026;2024-02-14T02:53:33;23.37;;;11.37;;
21392;SDS011;10857;52.228;21.026;2024-02-14T02:56:01;24.77;;;11.70;;
21392;SDS011;10857;52.228;21.026;2024-02-14T02:58:28;22.03;;;11.50;;
21392;SDS011;10857;52.228;21.026;2024-02-14T03:00:55;24.03;;;12.07;;
21392;SDS011;10857;52.228;21.026;2024-02-14T03:03:24;21.77;;;11.57;;
21392;SDS011;10857;52.228;21.026;2024-02-14T03:05:53;23.03;;;11.77;;
21392;SDS011;10857;52.228;21.026;2024-02-14T03:08:23;23.67;;;12.50;;
21392;SDS011;10857;52.228;21.026;2024-02-14T03:10:52;25.23;;;12.53;;
21392;SDS011;10857;52.228;21.026;2024-02-14T03:13:19;25.47;;;12.63;;
21392;SDS011;10857;52.228;21.026;2024-02-14T03:15:46;26.13;;;13.80;;
21392;SDS011;10857;52.228;21.026;2024-02-14T03:18:14;25.23;;;12.63;;
21392;SDS011;10857;52.228;21.026;2024-02-14T03:20:42;25.17;;;12.87;;
21392;SDS011;10857;52.228;21.026;2024-02-14T03:23:09;31.47;;;14.27;;
21392;SDS011;10857;52.228;21.026;2024-02-14T03:25:36;25.27;;;13.27;;
21392;SDS011;10857;52.228;21.026;2024-02-14T03:28:03;26.43;;;13.87;;
21392;SDS011;10857;52.228;21.026;2024-02-14T03:30:35;33.20;;;14.43;;
21392;SDS011;10857;52.228;21.026;2024-02-14T03:33:02;24.80;;;12.93;;
21392;SDS011;10857;52.228;21.026;2024-02-14T03:35:30;28.60;;;14.73;;
21392;SDS011;10857;52.228;21.026;2024-02-14T03:37:59;30.63;;;14.93;;
21392;SDS011;10857;52.228;21.026;2024-02-14T03:40:27;25.87;;;14.90;;
21392;SDS011;10857;52.228;21.026;2024-02-14T03:42:56;33.30;;;15.70;;
21392;SDS011;10857;52.228;21.026;2024-02-14T03:45:23;30.23;;;15.73;;
21392;SDS011;10857;52.228;21.026;2024-02-14T03:47:50;30.23;;;15.90;;
21392;SDS011;10857;52.228;21.026;2024-02-14T03:50:17;30.87;;;16.03;;
21392;SDS011;10857;52.228;21.026;2024-02-14T03:52:44;30.43;;;15.63;;
21392;SDS011;10857;52.228;21.026;2024-02-14T03:55:12;35.30;;;17.00;;
21392;SDS011;10857;52.228;21.026;2024-02-14T03:57:40;33.10;;;17.00;;
21392;SDS011;10857;52.228;21.026;2024-02-14T04:00:08;40.27;;;17.43;;
21392;SDS011;10857;52.228;21.026;2024-02-14T04:02:38;35.17;;;17.53;;
21392;SDS011;10857;52.228;21.026;2024-02-14T04:05:07;35.07;;;17.90;;
21392;SDS011;10857;52.228;21.026;2024-02-14T04:07:35;36.80;;;17.13;;
21392;SDS011;10857;52.228;21.026;2024-02-14T04:10:04;36.97;;;17.77;;
21392;SDS011;10857;52.228;21.026;2024-02-14T04:12:32;36.73;;;17.73;;
21392;SDS011;10857;52.228;21.026;2024-02-14T04:14:59;32.77;;;17.87;;
21392;SDS011;10857;52.228;21.026;2024-02-14T04:17:26;39.90;;;18.20;;
21392;SDS011;10857;52.228;21.026;2024-02-14T04:19:53;34.40;;;18.17;;
21392;SDS011;10857;52.228;21.026;2024-02-14T04:22:21;39.37;;;18.60;;
21392;SDS011;10857;52.228;21.026;2024-02-14T04:24:48;35.87;;;18.43;;
21392;SDS011;10857;52.228;21.026;2024-02-14T04:27:15;40.37;;;18.50;;
21392;SDS011;10857;52.228;21.026;2024-02-14T04:29:45;39.07;;;18.00;;
21392;SDS011;10857;52.228;21.026;2024-02-14T04:32:14;32.77;;;16.97;;
21392;SDS011;10857;52.228;21.026;2024-02-14T04:34:41;37.63;;;17.43;;
21392;SDS011;10857;52.228;21.026;2024-02-14T04:37:10;36.17;;;18.67;;
21392;SDS011;10857;52.228;21.026;2024-02-14T04:39:40;37.50;;;18.03;;
21392;SDS011;10857;52.228;21.026;2024-02-14T04:42:07;35.07;;;18.23;;
21392;SDS011;10857;52.228;21.026;2024-02-14T04:44:35;38.90;;;18.97;;
21392;SDS011;10857;52.228;21.026;2024-02-14T04:47:02;35.33;;;17.87;;
21392;SDS011;10857;52.228;21.026;2024-02-14T04:49:30;38.97;;;18.60;;
21392;SDS011;10857;52.228;21.026;2024-02-14T04:51:57;34.03;;;19.23;;
21392;SDS011;10857;52.228;21.026;2024-02-14T04:54:25;35.83;;;18.43;;
21392;SDS011;10857;52.228;21.026;2024-02-14T04:56:53;35.93;;;17.43;;
21392;SDS011;10857;52.228;21.026;2024-02-14T04:59:25;35.37;;;17.70;;
21392;SDS011;10857;52.228;21.026;2024-02-14T05:01:53;33.87;;;17.23;;
21392;SDS011;10857;52.228;21.026;2024-02-14T05:04:21;35.20;;;18.37;;
21392;SDS011;10857;52.228;21.026;2024-02-14T05:06:49;35.87;;;17.93;;
21392;SDS011;10857;52.228;21.026;2024-02-14T05:09:21;36.73;;;17.03;;
21392;SDS011;10857;52.228;21.026;2024-02-14T05:11:48;32.53;;;15.77;;
21392;SDS011;10857;52.228;21.026;2024-02-14T05:14:15;35.47;;;16.77;;
21392;SDS011;10857;52.228;21.026;2024-02-14T05:16:42;33.80;;;16.67;;
21392;SDS011;10857;52.228;21.026;2024-02-14T05:19:09;32.87;;;15.73;;
21392;SDS011;10857;52.228;21.026;2024-02-14T05:21:37;33.83;;;15.87;;
21392;SDS011;10857;52.228;21.026;2024-02-14T05:24:04;34.03;;;15.80;;
21392;SDS011;10857;52.228;21.026;2024-02-14T05:26:33;34.07;;;15.87;;
21392;SDS011;10857;52.228;21.026;2024-02-14T05:29:01;31.13;;;15.07;;
21392;SDS011;10857;52.228;21.026;2024-02-14T05:31:34;29.43;;;14.47;;
21392;SDS011;10857;52.228;21.026;2024-02-14T05:34:10;26.83;;;14.17;;
21392;SDS011;10857;52.228;21.026;2024-02-14T05:36:37;36.50;;;15.13;;
21392;SDS011;10857;52.228;21.026;2024-02-14T05:39:04;27.13;;;14.80;;
21392;SDS011;10857;52.228;21.026;2024-02-14T05:41:35;33.57;;;15.23;;
21392;SDS011;10857;52.228;21.026;2024-02-14T05:44:02;30.83;;;14.17;;
21392;SDS011;10857;52.228;21.026;2024-02-14T05:46:29;27.13;;;14.30;;
21392;SDS011;10857;52.228;21.026;2024-02-14T05:48:56;28.83;;;14.63;;
21392;SDS011;10857;52.228;21.026;2024-02-14T05:51:24;31.23;;;14.23;;
21392;SDS011;10857;52.228;21.026;2024-02-14T05:53:52;29.20;;;14.67;;
21392;SDS011;10857;52.228;21.026;2024-02-14T05:56:19;28.87;;;15.00;;
21392;SDS011;10857;52.228;21.026;2024-02-14T05:58:46;33.77;;;14.90;;
21392;SDS011;10857;52.228;21.026;2024-02-14T06:01:13;30.03;;;14.53;;
21392;SDS011;10857;52.228;21.026;2024-02-14T06:03:43;34.73;;;15.87;;
21392;SDS011;10857;52.228;21.026;2024-02-14T06:06:10;28.77;;;14.80;;
21392;SDS011;10857;52.228;21.026;2024-02-14T06:08:38;33.37;;;14.47;;
21392;SDS011;10857;52.228;21.026;2024-02-14T06:11:05;27.27;;;14.57;;
21392;SDS011;10857;52.228;21.026;2024-02-14T06:13:32;33.27;;;14.40;;
21392;SDS011;10857;52.228;21.026;2024-02-14T06:16:00;26.90;;;14.80;;
21392;SDS011;10857;52.228;21.026;2024-02-14T06:18:27;33.23;;;15.20;;
21392;SDS011;10857;52.228;21.026;2024-02-14T06:20:54;26.87;;;14.73;;
21392;SDS011;10857;52.228;21.026;2024-02-14T06:23:21;29.30;;;14.43;;
21392;SDS011;10857;52.228;21.026;2024-02-14T06:25:48;35.13;;;15.07;;
21392;SDS011;10857;52.228;21.026;2024-02-14T06:28:15;33.77;;;15.37;;
21392;SDS011;10857;52.228;21.026;2024-02-14T06:30:42;28.63;;;14.97;;
21392;SDS011;10857;52.228;21.026;2024-02-14T06:33:09;28.97;;;15.03;;
21392;SDS011;10857;52.228;21.026;2024-02-14T06:35:37;27.13;;;14.97;;
21392;SDS011;10857;52.228;21.026;2024-02-14T06:38:04;30.80;;;14.37;;
21392;SDS011;10857;52.228;21.026;2024-02-14T06:40:33;33.63;;;15.47;;
21392;SDS011;10857;52.228;21.026;2024-02-14T06:43:00;29.23;;;15.53;;
21392;SDS011;10857;52.228;21.026;2024-02-14T06:45:28;29.97;;;14.90;;
21392;SDS011;10857;52.228;21.026;2024-02-14T06:47:55;30.80;;;15.47;;
21392;SDS011;10857;52.228;21.026;2024-02-14T06:50:22;34.33;;;15.90;;
21392;SDS011;10857;52.228;21.026;2024-02-14T06:52:52;28.30;;;15.27;;
21392;SDS011;10857;52.228;21.026;2024-02-14T06:55:19;29.57;;;15.10;;
21392;SDS011;10857;52.228;21.026;2024-02-14T06:57:46;33.63;;;15.77;;
21392;SDS011;10857;52.228;21.026;2024-02-14T07:00:14;30.23;;;15.87;;
21392;SDS011;10857;52.228;21.026;2024-02-14T07:02:41;29.60;;;15.10;;
21392;SDS011;10857;52.228;21.026;2024-02-14T07:05:09;35.03;;;15.67;;
21392;SDS011;10857;52.228;21.026;2024-02-14T07:07:39;34.43;;;15.10;;
21392;SDS011;10857;52.228;21.026;2024-02-14T07:10:07;29.50;;;14.77;;
21392;SDS011;10857;52.228;21.026;2024-02-14T07:12:35;29.93;;;15.23;;
21392;SDS011;10857;52.228;21.026;2024-02-14T07:15:05;32.63;;;15.67;;
21392;SDS011;10857;52.228;21.026;2024-02-14T07:17:33;35.07;;;15.60;;
21392;SDS011;10857;52.228;21.026;2024-02-14T07:20:03;27.37;;;14.10;;
21392;SDS011;10857;52.228;21.026;2024-02-14T07:22:31;27.93;;;14.90;;
21392;SDS011;10857;52.228;21.026;2024-02-14T07:24:58;27.57;;;14.60;;
21392;SDS011;10857;52.228;21.026;2024-02-14T07:27:25;30.33;;;15.13;;
21392;SDS011;10857;52.228;21.026;2024-02-14T07:29:53;29.57;;;14.70;;
21392;SDS011;10857;52.228;21.026;2024-02-14T07:32:21;31.27;;;15.37;;
21392;SDS011;10857;52.228;21.026;2024-02-14T07:34:48;30.10;;;15.30;;
21392;SDS011;10857;52.228;21.026;2024-02-14T07:37:15;28.73;;;15.10;;
21392;SDS011;10857;52.228;21.026;2024-02-14T07:39:44;34.73;;;15.93;;
21392;SDS011;10857;52.228;21.026;2024-02-14T07:42:13;29.20;;;15.20;;
21392;SDS011;10857;52.228;21.026;2024-02-14T07:44:40;32.27;;;14.37;;
21392;SDS011;10857;52.228;21.026;2024-02-14T07:47:07;27.97;;;14.60;;
21392;SDS011;10857;52.228;21.026;2024-02-14T07:49:34;32.27;;;14.73;;
21392;SDS011;10857;52.228;21.026;2024-02-14T07:52:02;34.43;;;15.13;;
21392;SDS011;10857;52.228;21.026;2024-02-14T07:54:30;30.30;;;15.87;;
21392;SDS011;10857;52.228;21.026;2024-02-14T07:56:57;33.10;;;15.47;;
21392;SDS011;10857;52.228;21.026;2024-02-14T07:59:25;26.53;;;13.90;;
21392;SDS011;10857;52.228;21.026;2024-02-14T08:01:54;32.30;;;14.77;;
21392;SDS011;10857;52.228;21.026;2024-02-14T08:04:21;29.67;;;14.90;;
21392;SDS011;10857;52.228;21.026;2024-02-14T08:06:48;25.13;;;14.00;;
21392;SDS011;10857;52.228;21.026;2024-02-14T08:09:18;31.50;;;14.37;;
21392;SDS011;10857;52.228;21.026;2024-02-14T08:11:45;28.77;;;15.47;;
21392;SDS011;10857;52.228;21.026;2024-02-14T08:14:12;32.83;;;14.93;;
21392;SDS011;10857;52.228;21.026;2024-02-14T08:16:39;31.47;;;14.63;;
21392;SDS011;10857;52.228;21.026;2024-02-14T08:19:06;28.80;;;15.07;;
21392;SDS011;10857;52.228;21.026;2024-02-14T08:21:33;32.00;;;14.80;;
21392;SDS011;10857;52.228;21.026;2024-02-14T08:24:00;31.67;;;14.27;;
21392;SDS011;10857;52.228;21.026;2024-02-14T08:26:28;33.13;;;13.80;;
21392;SDS011;10857;52.228;21.026;2024-02-14T08:28:56;28.07;;;13.33;;
21392;SDS011;10857;52.228;21.026;2024-02-14T08:31:24;27.63;;;13.33;;
21392;SDS011;10857;52.228;21.026;2024-02-14T08:33:51;28.10;;;13.27;;
21392;SDS011;10857;52.228;21.026;2024-02-14T08:36:20;24.43;;;12.87;;
21392;SDS011;10857;52.228;21.026;2024-02-14T08:38:48;28.67;;;14.23;;
21392;SDS011;10857;52.228;21.026;2024-02-14T08:41:15;22.30;;;12.70;;
21392;SDS011;10857;52.228;21.026;2024-02-14T08:43:44;27.10;;;12.73;;
21392;SDS011;10857;52.228;21.026;2024-02-14T08:46:13;24.03;;;12.70;;
21392;SDS011;10857;52.228;21.026;2024-02-14T08:48:42;22.03;;;11.60;;
21392;SDS011;10857;52.228;21.026;2024-02-14T08:51:15;22.17;;;12.23;;
21392;SDS011;10857;52.228;21.026;2024-02-14T08:53:44;21.63;;;10.93;;
21392;SDS011;10857;52.228;21.026;2024-02-14T08:56:12;19.93;;;10.37;;
21392;SDS011;10857;52.228;21.026;2024-02-14T08:58:40;18.13;;;10.30;;
21392;SDS011;10857;52.228;21.026;2024-02-14T09:01:08;19.23;;;10.53;;
21392;SDS011;10857;52.228;21.026;2024-02-14T09:03:44;22.17;;;10.27;;
21392;SDS011;10857;52.228;21.026;2024-02-14T09:06:16;24.93;;;11.63;;
21392;SDS011;10857;52.228;21.026;2024-02-14T09:08:48;25.23;;;11.57;;
21392;SDS011;10857;52.228;21.026;2024-02-14T09:11:17;22.77;;;10.90;;
21392;SDS011;10857;52.228;21.026;2024-02-14T09:13:46;19.17;;;9.73;;
21392;SDS011;10857;52.228;21.026;2024-02-14T09:16:15;20.23;;;10.10;;
21392;SDS011;10857;52.228;21.026;2024-02-14T09:18:44;20.23;;;9.67;;
21392;SDS011;10857;52.228;21.026;2024-02-14T09:21:13;18.83;;;9.67;;
21392;SDS011;10857;52.228;21.026;2024-02-14T09:23:44;16.53;;;8.80;;
21392;SDS011;10857;52.228;21.026;2024-02-14T09:26:14;17.90;;;8.30;;
21392;SDS011;10857;52.228;21.026;2024-02-14T09:28:44;16.07;;;8.20;;
21392;SDS011;10857;52.228;21.026;2024-02-14T09:31:11;17.47;;;8.13;;
21392;SDS011;10857;52.228;21.026;2024-02-14T09:33:39;18.80;;;7.83;;
21392;SDS011;10857;52.228;21.026;2024-02-14T09:36:07;14.20;;;7.50;;
21392;SDS011;10857;52.228;21.026;2024-02-14T09:38:34;16.30;;;7.63;;
21392;SDS011;10857;52.228;21.026;2024-02-14T09:44:00;15.57;;;6.73;;
21392;SDS011;10857;52.228;21.026;2024-02-14T09:46:27;14.37;;;6.87;;
21392;SDS011;10857;52.228;21.026;2024-02-14T09:48:57;14.97;;;6.20;;
21392;SDS011;10857;52.228;21.026;2024-02-14T09:51:28;18.17;;;7.00;;
21392;SDS011;10857;52.228;21.026;2024-02-14T09:53:56;16.33;;;7.20;;
21392;SDS011;10857;52.228;21.026;2024-02-14T09:56:26;15.97;;;7.60;;
21392;SDS011;10857;52.228;21.026;2024-02-14T09:58:54;14.57;;;6.90;;
21392;SDS011;10857;52.228;21.026;2024-02-14T10:01:24;13.97;;;6.63;;
21392;SDS011;10857;52.228;21.026;2024-02-14T10:03:53;17.47;;;6.03;;
21392;SDS011;10857;52.228;21.026;2024-02-14T10:06:21;12.03;;;6.50;;
21392;SDS011;10857;52.228;21.026;2024-02-14T10:08:49;12.43;;;6.03;;
21392;SDS011;10857;52.228;21.026;2024-02-14T10:11:30;14.50;;;5.83;;
21392;SDS011;10857;52.228;21.026;2024-02-14T10:14:00;11.57;;;5.93;;
21392;SDS011;10857;52.228;21.026;2024-02-14T10:16:31;16.43;;;8.20;;
21392;SDS011;10857;52.228;21.026;2024-02-14T10:18:58;11.63;;;5.63;;
21392;SDS011;10857;52.228;21.026;2024-02-14T10:21:26;9.90;;;5.07;;
21392;SDS011;10857;52.228;21.026;2024-02-14T10:23:58;14.87;;;5.30;;
21392;SDS011;10857;52.228;21.026;2024-02-14T10:26:27;12.40;;;4.67;;
21392;SDS011;10857;52.228;21.026;2024-02-14T10:28:56;9.33;;;4.83;;
21392;SDS011;10857;52.228;21.026;2024-02-14T10:31:24;8.90;;;4.10;;
21392;SDS011;10857;52.228;21.026;2024-02-14T10:33:52;9.60;;;4.07;;
21392;SDS011;10857;52.228;21.026;2024-02-14T10:36:22;7.80;;;3.73;;
21392;SDS011;10857;52.228;21.026;2024-02-14T10:38:49;7.00;;;3.97;;
21392;SDS011;10857;52.228;21.026;2024-02-14T10:41:17;11.23;;;4.30;;
21392;SDS011;10857;52.228;21.026;2024-02-14T10:43:44;7.63;;;3.80;;
21392;SDS011;10857;52.228;21.026;2024-02-14T10:46:22;9.57;;;3.60;;
21392;SDS011;10857;52.228;21.026;2024-02-14T10:48:53;12.73;;;4.23;;
21392;SDS011;10857;52.228;21.026;2024-02-14T10:51:25;9.80;;;3.70;;
21392;SDS011;10857;52.228;21.026;2024-02-14T10:53:57;7.20;;;3.73;;
21392;SDS011;10857;52.228;21.026;2024-02-14T10:56:28;8.97;;;3.80;;
21392;SDS011;10857;52.228;21.026;2024-02-14T10:58:59;7.77;;;3.63;;
21392;SDS011;10857;52.228;21.026;2024-02-14T11:01:28;11.13;;;4.20;;
21392;SDS011;10857;52.228;21.026;2024-02-14T11:03:59;11.80;;;4.27;;
21392;SDS011;10857;52.228;21.026;2024-02-14T11:06:27;8.77;;;3.40;;
21392;SDS011;10857;52.228;21.026;2024-02-14T11:09:02;9.47;;;3.77;;
21392;SDS011;10857;52.228;21.026;2024-02-14T11:11:34;7.93;;;3.50;;
21392;SDS011;10857;52.228;21.026;2024-02-14T11:14:02;5.70;;;3.30;;
21392;SDS011;10857;52.228;21.026;2024-02-14T11:16:30;8.43;;;2.83;;
21392;SDS011;10857;52.228;21.026;2024-02-14T11:19:09;8.17;;;3.23;;
21392;SDS011;10857;52.228;21.026;2024-02-14T11:21:47;9.50;;;3.10;;
21392;SDS011;10857;52.228;21.026;2024-02-14T11:24:16;11.23;;;3.30;;
21392;SDS011;10857;52.228;21.026;2024-02-14T11:26:47;6.37;;;2.97;;
21392;SDS011;10857;52.228;21.026;2024-02-14T11:29:18;7.83;;;3.20;;
21392;SDS011;10857;52.228;21.026;2024-02-14T11:31:58;7.83;;;3.40;;
21392;SDS011;10857;52.228;21.026;2024-02-14T11:34:26;8.03;;;4.37;;
21392;SDS011;10857;52.228;21.026;2024-02-14T11:36:54;9.53;;;3.20;;
21392;SDS011;10857;52.228;21.026;2024-02-14T11:39:21;6.87;;;2.90;;
21392;SDS011;10857;52.228;21.026;2024-02-14T11:41:48;4.97;;;2.90;;
21392;SDS011;10857;52.228;21.026;2024-02-14T11:44:18;7.57;;;2.80;;
21392;SDS011;10857;52.228;21.026;2024-02-14T11:46:49;6.37;;;2.90;;
21392;SDS011;10857;52.228;21.026;2024-02-14T11:49:16;7.73;;;3.40;;
21392;SDS011;10857;52.228;21.026;2024-02-14T11:51:44;6.33;;;3.13;;
21392;SDS011;10857;52.228;21.026;2024-02-14T11:54:11;9.00;;;3.07;;
21392;SDS011;10857;52.228;21.026;2024-02-14T11:56:38;7.07;;;3.00;;
21392;SDS011;10857;52.228;21.026;2024-02-14T11:59:06;8.50;;;3.30;;
21392;SDS011;10857;52.228;21.026;2024-02-14T12:01:34;7.47;;;3.27;;
21392;SDS011;10857;52.228;21.026;2024-02-14T12:04:06;7.97;;;3.00;;
21392;SDS011;10857;52.228;21.026;2024-02-14T12:06:35;6.93;;;2.93;;
21392;SDS011;10857;52.228;21.026;2024-02-14T12:09:04;5.47;;;3.10;;
21392;SDS011;10857;52.228;21.026;2024-02-14T12:11:32;8.40;;;3.17;;
21392;SDS011;10857;52.228;21.026;2024-02-14T12:14:01;8.07;;;3.27;;
21392;SDS011;10857;52.228;21.026;2024-02-14T12:16:29;7.47;;;2.97;;
21392;SDS011;10857;52.228;21.026;2024-02-14T12:19:05;12.80;;;3.40;;
21392;SDS011;10857;52.228;21.026;2024-02-14T12:21:35;7.27;;;3.30;;
21392;SDS011;10857;52.228;21.026;2024-02-14T12:24:09;7.97;;;3.40;;
21392;SDS011;10857;52.228;21.026;2024-02-14T12:26:38;7.73;;;3.20;;
21392;SDS011;10857;52.228;21.026;2024-02-14T12:29:06;4.67;;;3.30;;
21392;SDS011;10857;52.228;21.026;2024-02-14T12:31:34;4.27;;;2.47;;
21392;SDS011;10857;52.228;21.026;2024-02-14T12:34:02;5.73;;;2.93;;
21392;SDS011;10857;52.228;21.026;2024-02-14T12:36:32;9.27;;;3.10;;
21392;SDS011;10857;52.228;21.026;2024-02-14T12:39:02;9.67;;;2.90;;
21392;SDS011;10857;52.228;21.026;2024-02-14T12:41:30;7.20;;;2.90;;
21392;SDS011;10857;52.228;21.026;2024-02-14T12:43:58;9.37;;;2.90;;
21392;SDS011;10857;52.228;21.026;2024-02-14T12:46:27;6.77;;;3.40;;
21392;SDS011;10857;52.228;21.026;2024-02-14T12:48:54;7.77;;;3.20;;
21392;SDS011;10857;52.228;21.026;2024-02-14T12:51:22;9.43;;;3.23;;
21392;SDS011;10857;52.228;21.026;2024-02-14T12:53:55;9.53;;;3.07;;
21392;SDS011;10857;52.228;21.026;2024-02-14T12:56:22;4.10;;;3.10;;
21392;SDS011;10857;52.228;21.026;2024-02-14T12:58:50;8.97;;;3.57;;
21392;SDS011;10857;52.228;21.026;2024-02-14T13:01:17;7.00;;;3.53;;
21392;SDS011;10857;52.228;21.026;2024-02-14T13:03:45;8.83;;;3.10;;
21392;SDS011;10857;52.228;21.026;2024-02-14T13:06:12;8.33;;;3.10;;
21392;SDS011;10857;52.228;21.026;2024-02-14T13:08:41;6.67;;;3.07;;
21392;SDS011;10857;52.228;21.026;2024-02-14T13:11:08;4.30;;;2.97;;
21392;SDS011;10857;52.228;21.026;2024-02-14T13:13:36;6.30;;;3.17;;
21392;SDS011;10857;52.228;21.026;2024-02-14T13:16:03;9.37;;;3.60;;
21392;SDS011;10857;52.228;21.026;2024-02-14T13:18:33;9.30;;;3.50;;
21392;SDS011;10857;52.228;21.026;2024-02-14T13:21:02;5.70;;;2.90;;
21392;SDS011;10857;52.228;21.026;2024-02-14T13:23:29;7.30;;;3.17;;
21392;SDS011;10857;52.228;21.026;2024-02-14T13:25:57;5.03;;;3.03;;
21392;SDS011;10857;52.228;21.026;2024-02-14T13:28:25;9.77;;;3.33;;
21392;SDS011;10857;52.228;21.026;2024-02-14T13:30:52;6.77;;;3.30;;
21392;SDS011;10857;52.228;21.026;2024-02-14T13:33:22;7.40;;;3.50;;
21392;SDS011;10857;52.228;21.026;2024-02-14T13:35:50;8.33;;;3.00;;
21392;SDS011;10857;52.228;21.026;2024-02-14T13:38:18;8.13;;;2.67;;
21392;SDS011;10857;52.228;21.026;2024-02-14T13:40:45;9.27;;;2.60;;
21392;SDS011;10857;52.228;21.026;2024-02-14T13:43:12;4.43;;;2.73;;
21392;SDS011;10857;52.228;21.026;2024-02-14T13:45:44;5.77;;;2.63;;
21392;SDS011;10857;52.228;21.026;2024-02-14T13:48:11;4.93;;;2.50;;
21392;SDS011;10857;52.228;21.026;2024-02-14T13:50:39;6.37;;;2.83;;
21392;SDS011;10857;52.228;21.026;2024-02-14T13:53:08;11.37;;;3.40;;
21392;SDS011;10857;52.228;21.026;2024-02-14T13:55:35;9.97;;;3.20;;
21392;SDS011;10857;52.228;21.026;2024-02-14T13:58:03;8.23;;;3.10;;
21392;SDS011;10857;52.228;21.026;2024-02-14T14:00:30;9.03;;;2.93;;
21392;SDS011;10857;52.228;21.026;2024-02-14T14:02:59;8.70;;;3.10;;
21392;SDS011;10857;52.228;21.026;2024-02-14T14:05:26;16.10;;;3.60;;
21392;SDS011;10857;52.228;21.026;2024-02-14T14:07:53;10.53;;;3.40;;
21392;SDS011;10857;52.228;21.026;2024-02-14T14:10:25;6.43;;;3.27;;
21392;SDS011;10857;52.228;21.026;2024-02-14T14:12:54;11.63;;;3.40;;
21392;SDS011;10857;52.228;21.026;2024-02-14T14:15:22;6.33;;;3.20;;
21392;SDS011;10857;52.228;21.026;2024-02-14T14:17:50;7.70;;;3.03;;
21392;SDS011;10857;52.228;21.026;2024-02-14T14:20:18;13.30;;;3.93;;
21392;SDS011;10857;52.228;21.026;2024-02-14T14:22:46;8.50;;;3.67;;
21392;SDS011;10857;52.228;21.026;2024-02-14T14:25:14;8.47;;;3.77;;
21392;SDS011;10857;52.228;21.026;2024-02-14T14:27:41;7.00;;;3.57;;
21392;SDS011;10857;52.228;21.026;2024-02-14T14:30:12;9.40;;;3.43;;
21392;SDS011;10857;52.228;21.026;2024-02-14T14:32:40;9.90;;;3.67;;